sensor_id;sensor_type;location;lat;lon;timestamp;P1;durP1;ratioP1;P2;durP2;ratioP2
40515;SDS011;26216;53.724;9.898;2022-09-16T00:00:40;2.28;;;0.65;;
40515;SDS011;26216;53.724;9.898;2022-09-16T00:03:08;2.63;;;0.60;;
40515;SDS011;26216;53.724;9.898;2022-09-16T00:05:38;2.10;;;0.70;;
40515;SDS011;26216;53.724;9.898;2022-09-16T00:08:06;2.03;;;0.68;;
40515;SDS011;26216;53.724;9.898;2022-09-16T00:10:32;1.73;;;0.60;;
40515;SDS011;26216;53.724;9.898;2022-09-16T00:13:02;1.20;;;0.60;;
40515;SDS011;26216;53.724;9.898;2022-09-16T00:15:28;1.00;;;0.68;;
40515;SDS011;26216;53.724;9.898;2022-09-16T00:17:54;1.77;;;0.50;;
40515;SDS011;26216;53.724;9.898;2022-09-16T00:20:20;1.98;;;0.65;;
40515;SDS011;26216;53.724;9.898;2022-09-16T00:22:46;2.00;;;0.80;;
40515;SDS011;26216;53.724;9.898;2022-09-16T00:25:12;7.15;;;0.77;;
40515;SDS011;26216;53.724;9.898;2022-09-16T00:27:38;1.30;;;0.50;;
40515;SDS011;26216;53.724;9.898;2022-09-16T00:30:04;1.92;;;0.80;;
40515;SDS011;26216;53.724;9.898;2022-09-16T00:32:30;2.97;;;0.93;;
40515;SDS011;26216;53.724;9.898;2022-09-16T00:34:56;4.05;;;1.08;;
40515;SDS011;26216;53.724;9.898;2022-09-16T00:37:21;1.20;;;0.60;;
40515;SDS011;26216;53.724;9.898;2022-09-16T00:39:48;3.20;;;0.85;;
40515;SDS011;26216;53.724;9.898;2022-09-16T00:42:14;2.83;;;0.95;;
40515;SDS011;26216;53.724;9.898;2022-09-16T00:44:50;1.40;;;0.82;;
40515;SDS011;26216;53.724;9.898;2022-09-16T00:47:33;3.95;;;1.05;;
40515;SDS011;26216;53.724;9.898;2022-09-16T00:50:09;2.35;;;0.63;;
40515;SDS011;26216;53.724;9.898;2022-09-16T00:52:40;2.00;;;0.73;;
40515;SDS011;26216;53.724;9.898;2022-09-16T00:55:08;4.55;;;0.82;;
40515;SDS011;26216;53.724;9.898;2022-09-16T00:57:37;1.95;;;0.70;;
40515;SDS011;26216;53.724;9.898;2022-09-16T01:00:05;1.33;;;0.55;;
40515;SDS011;26216;53.724;9.898;2022-09-16T01:02:34;1.60;;;0.40;;
40515;SDS011;26216;53.724;9.898;2022-09-16T01:05:07;3.47;;;0.80;;
40515;SDS011;26216;53.724;9.898;2022-09-16T01:07:38;2.25;;;0.80;;
40515;SDS011;26216;53.724;9.898;2022-09-16T01:10:16;2.00;;;0.70;;
40515;SDS011;26216;53.724;9.898;2022-09-16T01:12:45;1.95;;;0.70;;
40515;SDS011;26216;53.724;9.898;2022-09-16T01:15:14;1.58;;;0.60;;
40515;SDS011;26216;53.724;9.898;2022-09-16T01:23:12;1.75;;;0.60;;
40515;SDS011;26216;53.724;9.898;2022-09-16T01:29:13;0.63;;;0.40;;
40515;SDS011;26216;53.724;9.898;2022-09-16T01:37:33;2.65;;;1.00;;
40515;SDS011;26216;53.724;9.898;2022-09-16T01:40:08;2.95;;;0.50;;
40515;SDS011;26216;53.724;9.898;2022-09-16T01:48:41;1.92;;;0.50;;
40515;SDS011;26216;53.724;9.898;2022-09-16T01:51:20;1.70;;;0.60;;
40515;SDS011;26216;53.724;9.898;2022-09-16T01:59:03;0.95;;;0.40;;
40515;SDS011;26216;53.724;9.898;2022-09-16T02:01:45;1.75;;;0.50;;
40515;SDS011;26216;53.724;9.898;2022-09-16T02:04:23;1.13;;;0.50;;
40515;SDS011;26216;53.724;9.898;2022-09-16T02:06:53;1.23;;;0.50;;
40515;SDS011;26216;53.724;9.898;2022-09-16T02:09:25;1.73;;;0.45;;
40515;SDS011;26216;53.724;9.898;2022-09-16T02:11:57;0.88;;;0.45;;
40515;SDS011;26216;53.724;9.898;2022-09-16T02:14:30;2.13;;;0.80;;
40515;SDS011;26216;53.724;9.898;2022-09-16T02:17:00;3.00;;;0.90;;
40515;SDS011;26216;53.724;9.898;2022-09-16T02:19:42;2.22;;;0.65;;
40515;SDS011;26216;53.724;9.898;2022-09-16T02:22:35;2.15;;;0.68;;
40515;SDS011;26216;53.724;9.898;2022-09-16T02:25:04;1.35;;;0.50;;
40515;SDS011;26216;53.724;9.898;2022-09-16T02:27:31;1.00;;;0.40;;
40515;SDS011;26216;53.724;9.898;2022-09-16T02:30:04;1.13;;;0.47;;
40515;SDS011;26216;53.724;9.898;2022-09-16T02:32:33;1.77;;;0.43;;
40515;SDS011;26216;53.724;9.898;2022-09-16T02:35:02;2.25;;;0.70;;
40515;SDS011;26216;53.724;9.898;2022-09-16T02:37:39;3.30;;;0.47;;
40515;SDS011;26216;53.724;9.898;2022-09-16T02:40:23;2.85;;;0.73;;
40515;SDS011;26216;53.724;9.898;2022-09-16T02:43:00;1.17;;;0.43;;
40515;SDS011;26216;53.724;9.898;2022-09-16T02:45:36;3.45;;;0.60;;
40515;SDS011;26216;53.724;9.898;2022-09-16T02:48:22;2.13;;;0.70;;
40515;SDS011;26216;53.724;9.898;2022-09-16T02:56:44;2.03;;;0.70;;
40515;SDS011;26216;53.724;9.898;2022-09-16T02:59:11;1.38;;;0.70;;
40515;SDS011;26216;53.724;9.898;2022-09-16T03:01:42;1.73;;;0.70;;
40515;SDS011;26216;53.724;9.898;2022-09-16T03:04:10;2.70;;;0.90;;
40515;SDS011;26216;53.724;9.898;2022-09-16T03:06:38;2.80;;;0.80;;
40515;SDS011;26216;53.724;9.898;2022-09-16T03:09:05;2.97;;;0.85;;
40515;SDS011;26216;53.724;9.898;2022-09-16T03:11:38;1.58;;;0.70;;
40515;SDS011;26216;53.724;9.898;2022-09-16T03:25:21;3.03;;;0.65;;
40515;SDS011;26216;53.724;9.898;2022-09-16T03:28:11;2.10;;;0.50;;
40515;SDS011;26216;53.724;9.898;2022-09-16T03:30:57;1.20;;;0.40;;
40515;SDS011;26216;53.724;9.898;2022-09-16T03:36:24;1.58;;;0.47;;
40515;SDS011;26216;53.724;9.898;2022-09-16T03:38:54;1.38;;;0.60;;
40515;SDS011;26216;53.724;9.898;2022-09-16T03:41:22;1.95;;;0.50;;
40515;SDS011;26216;53.724;9.898;2022-09-16T03:43:55;1.27;;;0.57;;
40515;SDS011;26216;53.724;9.898;2022-09-16T03:46:23;2.20;;;0.88;;
40515;SDS011;26216;53.724;9.898;2022-09-16T03:48:50;1.25;;;0.60;;
40515;SDS011;26216;53.724;9.898;2022-09-16T03:51:17;3.05;;;1.00;;
40515;SDS011;26216;53.724;9.898;2022-09-16T03:53:42;1.70;;;0.70;;
40515;SDS011;26216;53.724;9.898;2022-09-16T03:56:08;0.82;;;0.50;;
40515;SDS011;26216;53.724;9.898;2022-09-16T03:58:34;1.98;;;0.70;;
40515;SDS011;26216;53.724;9.898;2022-09-16T04:01:00;1.98;;;0.75;;
40515;SDS011;26216;53.724;9.898;2022-09-16T04:03:26;1.30;;;0.50;;
40515;SDS011;26216;53.724;9.898;2022-09-16T04:05:52;3.33;;;0.95;;
40515;SDS011;26216;53.724;9.898;2022-09-16T04:08:19;2.85;;;0.68;;
40515;SDS011;26216;53.724;9.898;2022-09-16T04:13:21;2.03;;;0.60;;
40515;SDS011;26216;53.724;9.898;2022-09-16T04:15:48;2.08;;;0.70;;
40515;SDS011;26216;53.724;9.898;2022-09-16T04:18:14;1.73;;;0.40;;
40515;SDS011;26216;53.724;9.898;2022-09-16T04:20:40;2.00;;;0.82;;
40515;SDS011;26216;53.724;9.898;2022-09-16T04:23:07;1.80;;;0.50;;
40515;SDS011;26216;53.724;9.898;2022-09-16T04:25:33;2.25;;;0.70;;
40515;SDS011;26216;53.724;9.898;2022-09-16T04:27:59;1.45;;;0.70;;
40515;SDS011;26216;53.724;9.898;2022-09-16T04:30:25;1.77;;;0.50;;
40515;SDS011;26216;53.724;9.898;2022-09-16T04:32:52;1.40;;;0.55;;
40515;SDS011;26216;53.724;9.898;2022-09-16T04:35:18;1.95;;;0.63;;
40515;SDS011;26216;53.724;9.898;2022-09-16T04:37:44;3.33;;;0.82;;
40515;SDS011;26216;53.724;9.898;2022-09-16T04:40:10;3.63;;;0.77;;
40515;SDS011;26216;53.724;9.898;2022-09-16T04:42:36;1.60;;;0.60;;
40515;SDS011;26216;53.724;9.898;2022-09-16T04:45:02;2.95;;;0.80;;
40515;SDS011;26216;53.724;9.898;2022-09-16T04:47:29;1.83;;;0.60;;
40515;SDS011;26216;53.724;9.898;2022-09-16T04:49:58;1.70;;;0.90;;
40515;SDS011;26216;53.724;9.898;2022-09-16T04:52:24;2.38;;;0.80;;
40515;SDS011;26216;53.724;9.898;2022-09-16T04:54:49;1.80;;;0.50;;
40515;SDS011;26216;53.724;9.898;2022-09-16T04:57:15;1.70;;;0.60;;
40515;SDS011;26216;53.724;9.898;2022-09-16T04:59:41;1.67;;;0.55;;
40515;SDS011;26216;53.724;9.898;2022-09-16T05:02:07;2.70;;;0.70;;
40515;SDS011;26216;53.724;9.898;2022-09-16T05:04:33;1.08;;;0.40;;
40515;SDS011;26216;53.724;9.898;2022-09-16T05:06:58;2.05;;;0.52;;
40515;SDS011;26216;53.724;9.898;2022-09-16T05:09:24;3.03;;;0.65;;
40515;SDS011;26216;53.724;9.898;2022-09-16T05:11:50;2.85;;;1.00;;
40515;SDS011;26216;53.724;9.898;2022-09-16T05:14:16;1.80;;;0.40;;
40515;SDS011;26216;53.724;9.898;2022-09-16T05:16:43;4.00;;;0.70;;
40515;SDS011;26216;53.724;9.898;2022-09-16T05:19:09;1.92;;;0.45;;
40515;SDS011;26216;53.724;9.898;2022-09-16T05:21:37;2.17;;;0.73;;
40515;SDS011;26216;53.724;9.898;2022-09-16T05:24:05;2.35;;;0.60;;
40515;SDS011;26216;53.724;9.898;2022-09-16T05:26:36;3.22;;;0.90;;
40515;SDS011;26216;53.724;9.898;2022-09-16T05:29:07;2.53;;;0.70;;
40515;SDS011;26216;53.724;9.898;2022-09-16T05:31:39;2.78;;;0.88;;
40515;SDS011;26216;53.724;9.898;2022-09-16T05:34:10;1.92;;;0.50;;
40515;SDS011;26216;53.724;9.898;2022-09-16T05:39:04;2.20;;;0.55;;
40515;SDS011;26216;53.724;9.898;2022-09-16T05:41:31;1.42;;;0.60;;
40515;SDS011;26216;53.724;9.898;2022-09-16T05:43:59;1.15;;;0.40;;
40515;SDS011;26216;53.724;9.898;2022-09-16T05:46:26;2.13;;;0.63;;
40515;SDS011;26216;53.724;9.898;2022-09-16T05:48:53;2.97;;;0.88;;
40515;SDS011;26216;53.724;9.898;2022-09-16T05:51:20;1.20;;;0.50;;
40515;SDS011;26216;53.724;9.898;2022-09-16T05:53:47;2.63;;;0.60;;
40515;SDS011;26216;53.724;9.898;2022-09-16T05:56:14;2.05;;;0.50;;
40515;SDS011;26216;53.724;9.898;2022-09-16T05:58:42;2.13;;;0.80;;
40515;SDS011;26216;53.724;9.898;2022-09-16T06:01:09;2.50;;;0.65;;
40515;SDS011;26216;53.724;9.898;2022-09-16T06:03:41;2.72;;;0.80;;
40515;SDS011;26216;53.724;9.898;2022-09-16T06:06:11;1.98;;;0.80;;
40515;SDS011;26216;53.724;9.898;2022-09-16T06:08:38;2.33;;;0.70;;
40515;SDS011;26216;53.724;9.898;2022-09-16T06:11:08;3.22;;;0.70;;
40515;SDS011;26216;53.724;9.898;2022-09-16T06:13:36;1.55;;;0.50;;
40515;SDS011;26216;53.724;9.898;2022-09-16T06:16:03;1.42;;;0.45;;
40515;SDS011;26216;53.724;9.898;2022-09-16T06:18:30;1.83;;;0.68;;
40515;SDS011;26216;53.724;9.898;2022-09-16T06:21:00;3.00;;;0.70;;
40515;SDS011;26216;53.724;9.898;2022-09-16T06:23:36;2.38;;;0.75;;
40515;SDS011;26216;53.724;9.898;2022-09-16T06:26:10;2.28;;;0.55;;
40515;SDS011;26216;53.724;9.898;2022-09-16T06:28:39;1.10;;;0.60;;
40515;SDS011;26216;53.724;9.898;2022-09-16T06:31:15;2.47;;;0.55;;
40515;SDS011;26216;53.724;9.898;2022-09-16T06:33:42;2.90;;;0.73;;
40515;SDS011;26216;53.724;9.898;2022-09-16T06:36:13;3.17;;;0.63;;
40515;SDS011;26216;53.724;9.898;2022-09-16T06:38:41;5.35;;;1.10;;
40515;SDS011;26216;53.724;9.898;2022-09-16T06:41:07;2.03;;;0.80;;
40515;SDS011;26216;53.724;9.898;2022-09-16T06:43:35;3.33;;;0.60;;
40515;SDS011;26216;53.724;9.898;2022-09-16T06:46:03;3.70;;;1.00;;
40515;SDS011;26216;53.724;9.898;2022-09-16T06:48:33;2.42;;;0.65;;
40515;SDS011;26216;53.724;9.898;2022-09-16T06:51:00;2.03;;;0.68;;
40515;SDS011;26216;53.724;9.898;2022-09-16T06:53:31;3.17;;;0.82;;
40515;SDS011;26216;53.724;9.898;2022-09-16T06:56:16;2.40;;;0.80;;
40515;SDS011;26216;53.724;9.898;2022-09-16T06:58:44;2.17;;;0.60;;
40515;SDS011;26216;53.724;9.898;2022-09-16T07:01:18;3.75;;;0.75;;
40515;SDS011;26216;53.724;9.898;2022-09-16T07:03:50;2.65;;;0.90;;
40515;SDS011;26216;53.724;9.898;2022-09-16T07:06:17;4.53;;;1.15;;
40515;SDS011;26216;53.724;9.898;2022-09-16T07:08:45;3.38;;;0.68;;
40515;SDS011;26216;53.724;9.898;2022-09-16T07:11:12;3.53;;;0.82;;
40515;SDS011;26216;53.724;9.898;2022-09-16T07:13:39;3.80;;;0.90;;
40515;SDS011;26216;53.724;9.898;2022-09-16T07:16:07;4.30;;;0.93;;
40515;SDS011;26216;53.724;9.898;2022-09-16T07:18:35;3.88;;;0.70;;
40515;SDS011;26216;53.724;9.898;2022-09-16T07:21:07;5.88;;;1.35;;
40515;SDS011;26216;53.724;9.898;2022-09-16T07:23:38;4.43;;;1.17;;
40515;SDS011;26216;53.724;9.898;2022-09-16T07:26:06;1.70;;;0.52;;
40515;SDS011;26216;53.724;9.898;2022-09-16T07:28:33;2.60;;;0.90;;
40515;SDS011;26216;53.724;9.898;2022-09-16T07:31:01;2.85;;;0.90;;
40515;SDS011;26216;53.724;9.898;2022-09-16T07:33:31;1.63;;;0.50;;
40515;SDS011;26216;53.724;9.898;2022-09-16T07:36:01;3.03;;;0.70;;
40515;SDS011;26216;53.724;9.898;2022-09-16T07:38:29;2.10;;;0.63;;
40515;SDS011;26216;53.724;9.898;2022-09-16T07:41:02;2.53;;;0.75;;
40515;SDS011;26216;53.724;9.898;2022-09-16T07:43:32;2.67;;;0.95;;
40515;SDS011;26216;53.724;9.898;2022-09-16T07:45:58;3.90;;;0.82;;
40515;SDS011;26216;53.724;9.898;2022-09-16T07:48:25;4.97;;;0.90;;
40515;SDS011;26216;53.724;9.898;2022-09-16T07:50:57;6.32;;;0.90;;
40515;SDS011;26216;53.724;9.898;2022-09-16T07:53:26;3.80;;;0.80;;
40515;SDS011;26216;53.724;9.898;2022-09-16T07:55:54;2.88;;;1.13;;
40515;SDS011;26216;53.724;9.898;2022-09-16T07:58:34;2.60;;;0.70;;
40515;SDS011;26216;53.724;9.898;2022-09-16T08:01:00;4.38;;;1.05;;
40515;SDS011;26216;53.724;9.898;2022-09-16T08:03:27;5.00;;;0.98;;
40515;SDS011;26216;53.724;9.898;2022-09-16T08:05:57;4.80;;;0.93;;
40515;SDS011;26216;53.724;9.898;2022-09-16T08:08:31;5.03;;;1.08;;
40515;SDS011;26216;53.724;9.898;2022-09-16T08:10:57;5.10;;;1.45;;
40515;SDS011;26216;53.724;9.898;2022-09-16T08:13:25;5.47;;;1.40;;
40515;SDS011;26216;53.724;9.898;2022-09-16T08:15:55;3.42;;;0.93;;
40515;SDS011;26216;53.724;9.898;2022-09-16T08:18:25;4.32;;;1.13;;
40515;SDS011;26216;53.724;9.898;2022-09-16T08:20:51;4.05;;;1.17;;
40515;SDS011;26216;53.724;9.898;2022-09-16T08:23:17;7.45;;;1.27;;
40515;SDS011;26216;53.724;9.898;2022-09-16T08:25:43;3.25;;;0.75;;
40515;SDS011;26216;53.724;9.898;2022-09-16T08:28:15;4.00;;;1.20;;
40515;SDS011;26216;53.724;9.898;2022-09-16T08:30:42;3.20;;;1.02;;
40515;SDS011;26216;53.724;9.898;2022-09-16T08:33:08;4.10;;;1.00;;
40515;SDS011;26216;53.724;9.898;2022-09-16T08:35:34;3.53;;;1.00;;
40515;SDS011;26216;53.724;9.898;2022-09-16T08:38:00;5.82;;;1.10;;
40515;SDS011;26216;53.724;9.898;2022-09-16T08:40:28;6.38;;;1.67;;
40515;SDS011;26216;53.724;9.898;2022-09-16T08:46:03;7.00;;;1.30;;
40515;SDS011;26216;53.724;9.898;2022-09-16T08:48:55;5.18;;;1.55;;
40515;SDS011;26216;53.724;9.898;2022-09-16T08:51:40;4.15;;;1.00;;
40515;SDS011;26216;53.724;9.898;2022-09-16T08:54:08;3.63;;;0.95;;
40515;SDS011;26216;53.724;9.898;2022-09-16T08:56:39;2.15;;;0.70;;
40515;SDS011;26216;53.724;9.898;2022-09-16T08:59:11;2.90;;;0.80;;
40515;SDS011;26216;53.724;9.898;2022-09-16T09:01:43;3.55;;;0.98;;
40515;SDS011;26216;53.724;9.898;2022-09-16T09:04:15;2.97;;;0.80;;
40515;SDS011;26216;53.724;9.898;2022-09-16T09:09:45;3.50;;;1.00;;
40515;SDS011;26216;53.724;9.898;2022-09-16T09:12:34;4.40;;;1.17;;
40515;SDS011;26216;53.724;9.898;2022-09-16T09:23:36;4.05;;;0.90;;
40515;SDS011;26216;53.724;9.898;2022-09-16T09:43:42;8.48;;;2.22;;
40515;SDS011;26216;53.724;9.898;2022-09-16T09:46:12;3.83;;;1.10;;
40515;SDS011;26216;53.724;9.898;2022-09-16T09:49:09;4.05;;;1.10;;
40515;SDS011;26216;53.724;9.898;2022-09-16T09:51:53;3.42;;;1.10;;
40515;SDS011;26216;53.724;9.898;2022-09-16T09:54:25;4.28;;;1.02;;
40515;SDS011;26216;53.724;9.898;2022-09-16T10:00:12;3.00;;;0.77;;
40515;SDS011;26216;53.724;9.898;2022-09-16T10:02:42;5.07;;;1.40;;
40515;SDS011;26216;53.724;9.898;2022-09-16T10:07:52;5.97;;;1.17;;
40515;SDS011;26216;53.724;9.898;2022-09-16T10:10:22;6.15;;;1.30;;
40515;SDS011;26216;53.724;9.898;2022-09-16T10:12:50;6.55;;;1.70;;
40515;SDS011;26216;53.724;9.898;2022-09-16T10:15:25;3.80;;;0.98;;
40515;SDS011;26216;53.724;9.898;2022-09-16T10:17:53;6.85;;;1.10;;
40515;SDS011;26216;53.724;9.898;2022-09-16T10:20:29;4.13;;;1.00;;
40515;SDS011;26216;53.724;9.898;2022-09-16T10:23:03;7.07;;;1.35;;
40515;SDS011;26216;53.724;9.898;2022-09-16T10:25:43;3.60;;;1.20;;
40515;SDS011;26216;53.724;9.898;2022-09-16T10:28:17;4.90;;;1.30;;
40515;SDS011;26216;53.724;9.898;2022-09-16T10:30:55;6.00;;;1.10;;
40515;SDS011;26216;53.724;9.898;2022-09-16T10:33:35;5.47;;;1.45;;
40515;SDS011;26216;53.724;9.898;2022-09-16T10:36:08;3.72;;;1.13;;
40515;SDS011;26216;53.724;9.898;2022-09-16T10:38:42;5.35;;;1.40;;
40515;SDS011;26216;53.724;9.898;2022-09-16T10:43:45;3.78;;;1.35;;
40515;SDS011;26216;53.724;9.898;2022-09-16T10:46:15;8.35;;;1.00;;
40515;SDS011;26216;53.724;9.898;2022-09-16T10:48:43;5.32;;;1.48;;
40515;SDS011;26216;53.724;9.898;2022-09-16T10:51:29;4.47;;;1.30;;
40515;SDS011;26216;53.724;9.898;2022-09-16T10:54:01;3.42;;;0.90;;
40515;SDS011;26216;53.724;9.898;2022-09-16T10:56:34;7.38;;;1.45;;
40515;SDS011;26216;53.724;9.898;2022-09-16T10:59:12;5.43;;;1.60;;
40515;SDS011;26216;53.724;9.898;2022-09-16T11:07:56;5.25;;;1.25;;
40515;SDS011;26216;53.724;9.898;2022-09-16T11:13:23;6.07;;;1.30;;
40515;SDS011;26216;53.724;9.898;2022-09-16T11:27:35;7.93;;;2.13;;
40515;SDS011;26216;53.724;9.898;2022-09-16T11:30:10;4.32;;;1.10;;
40515;SDS011;26216;53.724;9.898;2022-09-16T11:32:51;6.63;;;1.50;;
40515;SDS011;26216;53.724;9.898;2022-09-16T11:41:07;7.70;;;1.60;;
40515;SDS011;26216;53.724;9.898;2022-09-16T11:46:46;6.80;;;1.55;;
40515;SDS011;26216;53.724;9.898;2022-09-16T11:49:39;3.72;;;1.15;;
40515;SDS011;26216;53.724;9.898;2022-09-16T11:58:01;4.10;;;1.20;;
40515;SDS011;26216;53.724;9.898;2022-09-16T12:00:45;2.10;;;0.90;;
40515;SDS011;26216;53.724;9.898;2022-09-16T12:03:22;3.45;;;0.85;;
40515;SDS011;26216;53.724;9.898;2022-09-16T12:06:08;2.45;;;0.70;;
40515;SDS011;26216;53.724;9.898;2022-09-16T12:11:44;2.58;;;0.57;;
40515;SDS011;26216;53.724;9.898;2022-09-16T12:16:55;3.47;;;0.50;;
40515;SDS011;26216;53.724;9.898;2022-09-16T12:22:31;2.88;;;0.60;;
40515;SDS011;26216;53.724;9.898;2022-09-16T12:25:19;2.65;;;0.70;;
40515;SDS011;26216;53.724;9.898;2022-09-16T12:30:39;3.15;;;0.68;;
40515;SDS011;26216;53.724;9.898;2022-09-16T12:33:43;3.63;;;1.30;;
40515;SDS011;26216;53.724;9.898;2022-09-16T12:36:09;2.88;;;0.77;;
40515;SDS011;26216;53.724;9.898;2022-09-16T12:38:38;4.55;;;1.08;;
40515;SDS011;26216;53.724;9.898;2022-09-16T13:01:31;4.30;;;1.10;;
40515;SDS011;26216;53.724;9.898;2022-09-16T13:03:36;4.35;;;1.42;;
40515;SDS011;26216;53.724;9.898;2022-09-16T13:06:06;4.97;;;1.02;;
40515;SDS011;26216;53.724;9.898;2022-09-16T13:09:19;3.50;;;0.90;;
40515;SDS011;26216;53.724;9.898;2022-09-16T13:11:52;6.68;;;1.40;;
40515;SDS011;26216;53.724;9.898;2022-09-16T13:14:26;4.72;;;1.38;;
40515;SDS011;26216;53.724;9.898;2022-09-16T13:16:56;4.72;;;0.95;;
40515;SDS011;26216;53.724;9.898;2022-09-16T13:24:46;5.20;;;1.30;;
40515;SDS011;26216;53.724;9.898;2022-09-16T13:29:51;2.97;;;1.10;;
40515;SDS011;26216;53.724;9.898;2022-09-16T13:37:49;6.13;;;1.20;;
40515;SDS011;26216;53.724;9.898;2022-09-16T13:42:50;2.97;;;0.90;;
40515;SDS011;26216;53.724;9.898;2022-09-16T13:45:38;5.10;;;1.05;;
40515;SDS011;26216;53.724;9.898;2022-09-16T13:48:12;2.65;;;0.70;;
40515;SDS011;26216;53.724;9.898;2022-09-16T13:50:49;3.72;;;0.80;;
40515;SDS011;26216;53.724;9.898;2022-09-16T13:53:31;6.40;;;1.00;;
40515;SDS011;26216;53.724;9.898;2022-09-16T13:59:08;3.78;;;0.77;;
40515;SDS011;26216;53.724;9.898;2022-09-16T14:02:23;3.67;;;0.60;;
40515;SDS011;26216;53.724;9.898;2022-09-16T14:13:12;3.35;;;0.88;;
40515;SDS011;26216;53.724;9.898;2022-09-16T14:18:15;2.22;;;0.57;;
40515;SDS011;26216;53.724;9.898;2022-09-16T14:21:19;4.68;;;1.05;;
40515;SDS011;26216;53.724;9.898;2022-09-16T14:23:46;2.47;;;0.60;;
40515;SDS011;26216;53.724;9.898;2022-09-16T14:26:16;2.78;;;0.60;;
40515;SDS011;26216;53.724;9.898;2022-09-16T14:28:44;3.47;;;0.90;;
40515;SDS011;26216;53.724;9.898;2022-09-16T14:33:42;3.50;;;0.77;;
40515;SDS011;26216;53.724;9.898;2022-09-16T14:36:18;4.55;;;1.20;;
40515;SDS011;26216;53.724;9.898;2022-09-16T14:38:56;3.38;;;0.80;;
40515;SDS011;26216;53.724;9.898;2022-09-16T14:41:36;4.35;;;1.00;;
40515;SDS011;26216;53.724;9.898;2022-09-16T14:46:47;2.72;;;0.70;;
40515;SDS011;26216;53.724;9.898;2022-09-16T14:49:16;2.95;;;0.70;;
40515;SDS011;26216;53.724;9.898;2022-09-16T14:51:50;3.13;;;0.70;;
40515;SDS011;26216;53.724;9.898;2022-09-16T14:54:23;3.70;;;1.10;;
40515;SDS011;26216;53.724;9.898;2022-09-16T14:57:12;4.35;;;1.17;;
40515;SDS011;26216;53.724;9.898;2022-09-16T14:59:54;3.08;;;0.90;;
40515;SDS011;26216;53.724;9.898;2022-09-16T15:05:19;3.03;;;0.98;;
40515;SDS011;26216;53.724;9.898;2022-09-16T15:11:11;7.72;;;0.95;;
40515;SDS011;26216;53.724;9.898;2022-09-16T15:13:42;2.50;;;0.75;;
40515;SDS011;26216;53.724;9.898;2022-09-16T15:16:10;2.63;;;1.00;;
40515;SDS011;26216;53.724;9.898;2022-09-16T15:19:21;4.40;;;1.10;;
40515;SDS011;26216;53.724;9.898;2022-09-16T15:21:34;6.30;;;1.00;;
40515;SDS011;26216;53.724;9.898;2022-09-16T15:24:05;4.13;;;0.75;;
40515;SDS011;26216;53.724;9.898;2022-09-16T15:26:40;2.97;;;0.75;;
40515;SDS011;26216;53.724;9.898;2022-09-16T15:29:32;3.03;;;0.98;;
40515;SDS011;26216;53.724;9.898;2022-09-16T15:35:10;2.30;;;0.88;;
40515;SDS011;26216;53.724;9.898;2022-09-16T15:37:47;4.90;;;1.00;;
40515;SDS011;26216;53.724;9.898;2022-09-16T15:45:40;3.97;;;1.10;;
40515;SDS011;26216;53.724;9.898;2022-09-16T15:55:50;7.30;;;1.45;;
40515;SDS011;26216;53.724;9.898;2022-09-16T16:03:24;3.90;;;1.00;;
40515;SDS011;26216;53.724;9.898;2022-09-16T16:05:53;5.35;;;1.40;;
40515;SDS011;26216;53.724;9.898;2022-09-16T16:11:10;4.10;;;1.00;;
40515;SDS011;26216;53.724;9.898;2022-09-16T16:13:38;6.25;;;1.40;;
40515;SDS011;26216;53.724;9.898;2022-09-16T16:16:04;2.90;;;0.90;;
40515;SDS011;26216;53.724;9.898;2022-09-16T16:18:33;3.88;;;1.35;;
40515;SDS011;26216;53.724;9.898;2022-09-16T16:21:04;4.90;;;1.15;;
40515;SDS011;26216;53.724;9.898;2022-09-16T16:23:32;5.13;;;1.15;;
40515;SDS011;26216;53.724;9.898;2022-09-16T16:25:58;5.20;;;1.60;;
40515;SDS011;26216;53.724;9.898;2022-09-16T16:28:24;3.78;;;0.98;;
40515;SDS011;26216;53.724;9.898;2022-09-16T16:30:50;9.68;;;2.25;;
40515;SDS011;26216;53.724;9.898;2022-09-16T16:33:16;4.78;;;1.45;;
40515;SDS011;26216;53.724;9.898;2022-09-16T16:35:42;4.03;;;1.30;;
40515;SDS011;26216;53.724;9.898;2022-09-16T16:38:08;8.77;;;1.40;;
40515;SDS011;26216;53.724;9.898;2022-09-16T16:40:34;4.22;;;1.20;;
40515;SDS011;26216;53.724;9.898;2022-09-16T16:43:00;7.72;;;1.42;;
40515;SDS011;26216;53.724;9.898;2022-09-16T16:45:26;6.25;;;1.40;;
40515;SDS011;26216;53.724;9.898;2022-09-16T16:47:52;5.72;;;1.30;;
40515;SDS011;26216;53.724;9.898;2022-09-16T16:50:18;5.47;;;1.38;;
40515;SDS011;26216;53.724;9.898;2022-09-16T16:52:44;6.30;;;1.90;;
40515;SDS011;26216;53.724;9.898;2022-09-16T16:55:15;6.80;;;1.65;;
40515;SDS011;26216;53.724;9.898;2022-09-16T16:57:41;5.57;;;1.45;;
40515;SDS011;26216;53.724;9.898;2022-09-16T17:00:08;6.70;;;1.33;;
40515;SDS011;26216;53.724;9.898;2022-09-16T17:02:35;4.20;;;1.20;;
40515;SDS011;26216;53.724;9.898;2022-09-16T17:05:00;5.22;;;1.45;;
40515;SDS011;26216;53.724;9.898;2022-09-16T17:07:26;4.80;;;1.27;;
40515;SDS011;26216;53.724;9.898;2022-09-16T17:09:53;7.85;;;1.58;;
40515;SDS011;26216;53.724;9.898;2022-09-16T17:12:21;6.40;;;1.63;;
40515;SDS011;26216;53.724;9.898;2022-09-16T17:14:47;6.82;;;1.45;;
40515;SDS011;26216;53.724;9.898;2022-09-16T17:17:13;5.57;;;1.15;;
40515;SDS011;26216;53.724;9.898;2022-09-16T17:19:39;6.53;;;1.55;;
40515;SDS011;26216;53.724;9.898;2022-09-16T17:22:05;3.95;;;1.20;;
40515;SDS011;26216;53.724;9.898;2022-09-16T17:24:31;2.45;;;1.00;;
40515;SDS011;26216;53.724;9.898;2022-09-16T17:26:58;4.93;;;1.15;;
40515;SDS011;26216;53.724;9.898;2022-09-16T17:29:24;7.25;;;1.40;;
40515;SDS011;26216;53.724;9.898;2022-09-16T17:31:50;4.25;;;1.20;;
40515;SDS011;26216;53.724;9.898;2022-09-16T17:34:16;5.45;;;1.85;;
40515;SDS011;26216;53.724;9.898;2022-09-16T17:36:43;7.00;;;1.73;;
40515;SDS011;26216;53.724;9.898;2022-09-16T17:39:11;6.95;;;1.35;;
40515;SDS011;26216;53.724;9.898;2022-09-16T17:41:43;5.88;;;1.27;;
40515;SDS011;26216;53.724;9.898;2022-09-16T17:44:11;4.65;;;1.52;;
40515;SDS011;26216;53.724;9.898;2022-09-16T17:46:38;5.63;;;1.40;;
40515;SDS011;26216;53.724;9.898;2022-09-16T17:49:06;4.53;;;1.38;;
40515;SDS011;26216;53.724;9.898;2022-09-16T17:51:42;4.95;;;1.20;;
40515;SDS011;26216;53.724;9.898;2022-09-16T17:54:09;15.50;;;2.10;;
40515;SDS011;26216;53.724;9.898;2022-09-16T17:56:35;4.63;;;1.42;;
40515;SDS011;26216;53.724;9.898;2022-09-16T17:59:01;3.25;;;0.90;;
40515;SDS011;26216;53.724;9.898;2022-09-16T18:01:28;6.82;;;1.48;;
40515;SDS011;26216;53.724;9.898;2022-09-16T18:03:55;5.78;;;1.52;;
40515;SDS011;26216;53.724;9.898;2022-09-16T18:06:23;5.05;;;1.65;;
40515;SDS011;26216;53.724;9.898;2022-09-16T18:08:52;5.18;;;1.40;;
40515;SDS011;26216;53.724;9.898;2022-09-16T18:11:19;4.38;;;1.45;;
40515;SDS011;26216;53.724;9.898;2022-09-16T18:13:52;4.95;;;1.08;;
40515;SDS011;26216;53.724;9.898;2022-09-16T18:16:22;4.75;;;1.10;;
40515;SDS011;26216;53.724;9.898;2022-09-16T18:18:50;3.35;;;1.02;;
40515;SDS011;26216;53.724;9.898;2022-09-16T18:21:20;4.15;;;1.10;;
40515;SDS011;26216;53.724;9.898;2022-09-16T18:23:51;4.28;;;1.30;;
40515;SDS011;26216;53.724;9.898;2022-09-16T18:28:45;4.55;;;1.00;;
40515;SDS011;26216;53.724;9.898;2022-09-16T18:31:14;4.25;;;1.23;;
40515;SDS011;26216;53.724;9.898;2022-09-16T18:33:42;5.93;;;1.08;;
40515;SDS011;26216;53.724;9.898;2022-09-16T18:36:12;2.28;;;0.93;;
40515;SDS011;26216;53.724;9.898;2022-09-16T18:38:40;3.80;;;1.10;;
40515;SDS011;26216;53.724;9.898;2022-09-16T18:41:17;4.40;;;1.02;;
40515;SDS011;26216;53.724;9.898;2022-09-16T18:43:46;3.85;;;1.00;;
40515;SDS011;26216;53.724;9.898;2022-09-16T18:46:25;5.15;;;1.02;;
40515;SDS011;26216;53.724;9.898;2022-09-16T18:48:56;7.25;;;1.42;;
40515;SDS011;26216;53.724;9.898;2022-09-16T18:53:57;5.60;;;1.48;;
40515;SDS011;26216;53.724;9.898;2022-09-16T18:56:25;7.00;;;1.73;;
40515;SDS011;26216;53.724;9.898;2022-09-16T18:59:02;3.70;;;0.90;;